Aviation Digital Data Service (ADDS)

Output produced by TAFs form (0743 UTC 28 February 2017)
found at http://aviationweather.gov/adds/tafs/
 
KHOB 280521Z 2806/0106 21006KT P6SM BKN250 
     FM281600 23015G25KT 6SM BLDU SCT150 BKN250 
     FM281900 23030G40KT 6SM BLDU SCT150 BKN250 
     FM010200 25010KT P6SM SCT250